Time;durP1;ratioP1;P1;durP2;ratioP2;P2;SDS_P1;SDS_P2;PMS_P1;PMS_P2;Temp;Humidity;BMP_temperature;BMP_pressure;BME280_temperature;BME280_humidity;BME280_pressure;Samples;Min_cycle;Max_cycle;Signal;HPM_P1;HPM_P2
2021/07/07 00:00:14;;;;;;;7.75;2.40;;;15.60;99.90;;;;;;5120939;27;20491;-76
2021/07/07 00:02:41;;;;;;;14.00;2.50;;;15.60;99.90;;;;;;5089754;27;20051;-76
2021/07/07 00:05:09;;;;;;;8.75;2.47;;;15.50;99.90;;;;;;5114451;27;20043;-76
2021/07/07 00:07:36;;;;;;;7.95;1.98;;;15.50;99.90;;;;;;5119497;27;20679;-76
2021/07/07 00:10:27;;;;;;;12.30;2.40;;;15.50;99.90;;;;;;5117608;27;20058;-77
2021/07/07 00:12:59;;;;;;;8.15;2.28;;;15.90;99.90;;;;;;5116855;27;20038;-77
2021/07/07 00:15:27;;;;;;;7.82;2.38;;;15.50;99.90;;;;;;5102748;28;20036;-76
2021/07/07 00:17:53;;;;;;;8.95;2.22;;;15.50;99.90;;;;;;5130335;27;20038;-76
2021/07/07 00:20:20;;;;;;;7.93;2.30;;;15.40;99.90;;;;;;5074000;28;20032;-76
2021/07/07 00:22:48;;;;;;;7.95;2.03;;;15.40;99.90;;;;;;5088518;28;20047;-76
2021/07/07 00:25:15;;;;;;;9.05;2.10;;;15.40;99.90;;;;;;5105324;28;20047;-76
2021/07/07 00:27:41;;;;;;;6.85;1.90;;;15.40;99.90;;;;;;5108886;27;20122;-76
2021/07/07 00:30:13;;;;;;;10.57;2.60;;;15.40;99.90;;;;;;5109625;27;20118;-76
2021/07/07 00:32:41;;;;;;;8.50;2.20;;;15.30;99.90;;;;;;5088845;28;20042;-76
2021/07/07 00:35:08;;;;;;;8.88;2.10;;;15.30;99.90;;;;;;5116315;27;20031;-76
2021/07/07 00:37:34;;;;;;;8.50;2.35;;;15.10;99.90;;;;;;5101989;28;20039;-76
2021/07/07 00:40:04;;;;;;;6.97;2.50;;;15.10;99.90;;;;;;5107559;28;20052;-77
2021/07/07 00:42:30;;;;;;;6.72;2.10;;;15.30;99.90;;;;;;5119093;27;20074;-77
2021/07/07 00:44:56;;;;;;;7.47;2.30;;;15.30;99.90;;;;;;5093509;28;20406;-77
2021/07/07 00:47:22;;;;;;;11.13;2.47;;;15.30;99.90;;;;;;5113101;28;20088;-76
2021/07/07 00:49:48;;;;;;;10.23;2.72;;;15.30;99.90;;;;;;5121205;27;20067;-77
2021/07/07 00:52:18;;;;;;;8.43;2.42;;;15.20;99.90;;;;;;5121673;27;20035;-76
2021/07/07 00:54:45;;;;;;;11.05;2.35;;;15.20;99.90;;;;;;5121922;27;20047;-77
2021/07/07 00:57:16;;;;;;;10.60;2.25;;;15.20;99.90;;;;;;5109911;28;20081;-77
2021/07/07 00:59:45;;;;;;;9.05;2.22;;;15.10;99.90;;;;;;5116284;27;20031;-77
2021/07/07 01:02:11;;;;;;;5.28;2.53;;;15.20;99.90;;;;;;5099722;28;20036;-77
2021/07/07 01:04:37;;;;;;;7.78;2.30;;;15.10;99.90;;;;;;5118817;27;20024;-78
2021/07/07 01:07:03;;;;;;;9.52;2.70;;;15.10;99.90;;;;;;5111070;28;20032;-77
2021/07/07 01:09:30;;;;;;;6.82;2.53;;;15.10;99.90;;;;;;5126718;27;20092;-77
2021/07/07 01:12:03;;;;;;;10.35;2.83;;;15.30;99.90;;;;;;5113697;27;20471;-77
2021/07/07 01:14:31;;;;;;;6.65;2.30;;;15.00;99.90;;;;;;5112721;28;20038;-77
2021/07/07 01:16:58;;;;;;;6.65;2.60;;;15.00;99.90;;;;;;5104009;28;20040;-77
2021/07/07 01:19:24;;;;;;;6.35;2.40;;;15.00;99.90;;;;;;5075214;28;20051;-76
2021/07/07 01:21:50;;;;;;;8.80;2.88;;;15.00;99.90;;;;;;5088182;28;20048;-76
2021/07/07 01:24:19;;;;;;;9.27;2.40;;;14.90;99.90;;;;;;5110072;27;20039;-76
2021/07/07 01:26:45;;;;;;;9.45;2.70;;;14.90;99.90;;;;;;5117753;28;20070;-77
2021/07/07 01:29:15;;;;;;;8.30;2.63;;;14.90;99.90;;;;;;5097943;28;20479;-77
2021/07/07 01:31:44;;;;;;;12.55;3.20;;;14.90;99.90;;;;;;5113081;28;20063;-76
2021/07/07 01:34:11;;;;;;;8.50;2.88;;;14.80;99.90;;;;;;5087980;28;20043;-76
2021/07/07 01:36:37;;;;;;;9.82;2.90;;;14.80;99.90;;;;;;5112871;28;20149;-78
2021/07/07 01:39:08;;;;;;;11.75;3.05;;;14.80;99.90;;;;;;5078156;28;20454;-77
2021/07/07 01:41:36;;;;;;;7.07;2.50;;;14.70;99.90;;;;;;5112519;28;20055;-78
2021/07/07 01:44:02;;;;;;;12.30;2.67;;;14.70;99.90;;;;;;5095646;28;20031;-78
2021/07/07 01:46:31;;;;;;;7.75;2.80;;;14.70;99.90;;;;;;5112597;28;20032;-78
2021/07/07 01:48:57;;;;;;;9.80;2.97;;;14.70;99.90;;;;;;5092194;28;20111;-78
2021/07/07 01:51:23;;;;;;;11.00;2.65;;;14.70;99.90;;;;;;5074553;28;20048;-78
2021/07/07 01:53:50;;;;;;;12.35;2.60;;;14.60;99.90;;;;;;5106496;28;20126;-78
2021/07/07 01:56:16;;;;;;;7.78;2.60;;;14.60;99.90;;;;;;5093747;28;20100;-77
2021/07/07 01:58:44;;;;;;;7.78;2.58;;;14.60;99.90;;;;;;5112441;28;20040;-77
2021/07/07 02:01:12;;;;;;;8.15;2.70;;;14.60;99.90;;;;;;5111245;28;20114;-81
2021/07/07 02:03:38;;;;;;;9.63;2.50;;;14.50;99.90;;;;;;5101612;28;20088;-80
2021/07/07 02:06:03;;;;;;;7.95;2.88;;;14.50;99.90;;;;;;5098620;28;20043;-81
2021/07/07 02:08:29;;;;;;;7.85;2.40;;;14.50;99.90;;;;;;5116561;28;20451;-81
2021/07/07 02:10:55;;;;;;;10.70;3.00;;;14.50;99.90;;;;;;5099402;28;20372;-81
2021/07/07 02:13:22;;;;;;;9.45;2.47;;;14.50;99.90;;;;;;5080757;28;20031;-80
2021/07/07 02:15:47;;;;;;;8.32;2.65;;;14.50;99.90;;;;;;5082579;27;20053;-81
2021/07/07 02:18:13;;;;;;;7.45;2.65;;;14.50;99.90;;;;;;5118529;27;20144;-80
2021/07/07 02:20:42;;;;;;;8.15;2.65;;;14.50;99.90;;;;;;5116458;28;20482;-77
2021/07/07 02:23:11;;;;;;;12.85;3.00;;;14.40;99.90;;;;;;5102304;28;20040;-77
2021/07/07 02:25:39;;;;;;;9.52;2.58;;;14.40;99.90;;;;;;5116582;28;20039;-77
2021/07/07 02:28:06;;;;;;;6.72;2.40;;;14.50;99.90;;;;;;5115101;28;20414;-77
2021/07/07 02:30:36;;;;;;;11.15;2.97;;;14.40;99.90;;;;;;5109796;28;20040;-77
2021/07/07 02:33:04;;;;;;;8.07;2.83;;;14.40;99.90;;;;;;5116302;28;20479;-77
2021/07/07 02:35:33;;;;;;;10.90;2.72;;;14.40;99.90;;;;;;5115820;28;20114;-76
2021/07/07 02:37:59;;;;;;;7.70;3.22;;;14.40;99.90;;;;;;5098079;28;20051;-76
2021/07/07 02:40:28;;;;;;;8.80;2.85;;;14.40;99.90;;;;;;5110286;28;20070;-76
2021/07/07 02:42:54;;;;;;;8.32;2.78;;;14.40;99.90;;;;;;5097965;28;20381;-76
2021/07/07 02:45:24;;;;;;;9.80;2.83;;;14.40;99.90;;;;;;5114713;28;20043;-77
2021/07/07 02:47:50;;;;;;;11.85;3.00;;;14.40;99.90;;;;;;5115719;28;20100;-77
2021/07/07 02:50:17;;;;;;;14.40;3.10;;;14.40;99.90;;;;;;5099463;28;20035;-77
2021/07/07 02:52:45;;;;;;;6.28;3.03;;;14.40;99.90;;;;;;5097764;28;20093;-77
2021/07/07 02:55:13;;;;;;;7.15;3.05;;;14.30;99.90;;;;;;5107884;28;20093;-77
2021/07/07 03:00:30;;;;;;;8.07;2.80;;;14.40;99.90;;;;;;5115104;27;20538;-77
2021/07/07 03:03:11;;;;;;;13.57;3.10;;;14.30;99.90;;;;;;5098704;28;20115;-77
2021/07/07 03:05:45;;;;;;;9.77;2.90;;;14.40;99.90;;;;;;5115570;28;20508;-77
2021/07/07 03:08:12;;;;;;;17.08;4.20;;;14.40;99.90;;;;;;5097186;28;20055;-77
2021/07/07 03:10:39;;;;;;;8.13;2.88;;;14.40;99.90;;;;;;5115140;27;20044;-77
2021/07/07 03:13:08;;;;;;;5.40;3.00;;;14.40;99.90;;;;;;5114876;28;20031;-77
2021/07/07 03:15:37;;;;;;;10.13;2.72;;;14.40;99.90;;;;;;5104570;28;20040;-76
2021/07/07 03:18:04;;;;;;;7.93;2.95;;;14.40;99.90;;;;;;5096152;28;20051;-77
2021/07/07 03:20:32;;;;;;;6.35;2.83;;;14.40;99.90;;;;;;5104186;28;20027;-77
2021/07/07 03:23:00;;;;;;;9.95;2.92;;;14.40;99.90;;;;;;5114600;28;20380;-76
2021/07/07 03:25:27;;;;;;;10.32;3.67;;;14.40;99.90;;;;;;5115085;28;20077;-77
2021/07/07 03:27:53;;;;;;;8.15;3.28;;;14.40;99.90;;;;;;5080475;28;20063;-77
2021/07/07 03:30:19;;;;;;;8.75;2.92;;;14.40;99.90;;;;;;5114946;28;20070;-77
2021/07/07 03:32:45;;;;;;;7.60;2.70;;;14.40;99.90;;;;;;5097277;28;20036;-77
2021/07/07 03:35:11;;;;;;;6.93;3.00;;;14.40;99.90;;;;;;5101930;28;20028;-77
2021/07/07 03:37:37;;;;;;;15.05;3.20;;;14.40;99.90;;;;;;5096943;28;20055;-77
2021/07/07 03:40:05;;;;;;;8.50;2.70;;;14.40;99.90;;;;;;5114853;28;20058;-77
2021/07/07 03:42:31;;;;;;;5.15;2.70;;;14.40;99.90;;;;;;5096785;28;20028;-77
2021/07/07 03:44:58;;;;;;;10.35;3.28;;;14.40;99.90;;;;;;5099065;28;20035;-77
2021/07/07 03:47:25;;;;;;;9.32;3.75;;;14.40;99.90;;;;;;5114585;28;20502;-77
2021/07/07 03:49:51;;;;;;;8.65;3.17;;;14.50;99.90;;;;;;5114575;28;20433;-77
2021/07/07 03:52:17;;;;;;;6.45;2.83;;;14.50;99.90;;;;;;5095575;28;20048;-77
2021/07/07 03:54:43;;;;;;;6.82;2.45;;;14.50;99.90;;;;;;5114432;28;20034;-77
2021/07/07 03:57:09;;;;;;;9.43;3.00;;;14.40;99.90;;;;;;5096474;28;20051;-77
2021/07/07 03:59:36;;;;;;;8.57;3.22;;;14.50;99.90;;;;;;5079567;28;20146;-80
2021/07/07 04:02:06;;;;;;;7.13;2.53;;;14.60;99.90;;;;;;5064260;28;20100;-81
2021/07/07 04:04:32;;;;;;;9.20;3.00;;;14.50;99.90;;;;;;5082464;28;20426;-80
2021/07/07 04:06:59;;;;;;;7.25;3.00;;;14.50;99.90;;;;;;5096231;28;20198;-81
2021/07/07 04:09:28;;;;;;;7.60;3.10;;;14.50;99.90;;;;;;5099549;28;20387;-80
2021/07/07 04:11:55;;;;;;;9.65;3.00;;;14.70;99.90;;;;;;5096222;28;20035;-80
2021/07/07 04:14:24;;;;;;;6.03;2.92;;;14.60;99.90;;;;;;5061682;28;20040;-81
2021/07/07 04:16:56;;;;;;;8.02;3.00;;;14.70;99.90;;;;;;5082129;28;20115;-80
2021/07/07 04:19:23;;;;;;;10.98;3.00;;;14.70;99.90;;;;;;5099406;28;20626;-80
2021/07/07 04:21:50;;;;;;;8.82;2.67;;;14.70;99.90;;;;;;5113387;28;20050;-80
2021/07/07 04:24:16;;;;;;;9.45;3.00;;;14.80;99.90;;;;;;5094744;28;20038;-80
2021/07/07 04:26:42;;;;;;;8.20;3.13;;;14.80;99.90;;;;;;5114158;28;20084;-80
2021/07/07 04:29:08;;;;;;;11.00;2.80;;;14.80;99.90;;;;;;5095931;28;20437;-80
2021/07/07 04:31:35;;;;;;;10.52;2.58;;;14.80;99.90;;;;;;5095563;28;20036;-80
2021/07/07 04:34:01;;;;;;;9.52;3.00;;;14.90;99.90;;;;;;5113486;28;20364;-80
2021/07/07 04:36:28;;;;;;;7.05;2.75;;;14.90;99.90;;;;;;5101621;28;20470;-80
2021/07/07 04:38:53;;;;;;;13.07;3.15;;;14.90;99.90;;;;;;5103484;28;20043;-80
2021/07/07 04:41:20;;;;;;;7.72;3.22;;;15.00;99.90;;;;;;5112471;28;20076;-80
2021/07/07 04:43:45;;;;;;;6.50;2.85;;;15.00;99.90;;;;;;5095565;28;20499;-80
2021/07/07 04:46:11;;;;;;;8.27;3.38;;;15.10;99.90;;;;;;5113561;28;20479;-80
2021/07/07 04:48:37;;;;;;;7.78;3.03;;;15.10;99.90;;;;;;5082940;28;20047;-80
2021/07/07 04:51:04;;;;;;;9.82;3.63;;;15.20;99.90;;;;;;5095679;28;20507;-80
2021/07/07 04:53:30;;;;;;;8.57;3.08;;;15.20;99.90;;;;;;5097229;28;20027;-81
2021/07/07 04:55:56;;;;;;;8.38;3.10;;;15.20;99.90;;;;;;5094176;28;20097;-81
2021/07/07 04:58:25;;;;;;;7.53;2.95;;;15.30;99.90;;;;;;5082613;28;20059;-77
2021/07/07 05:00:52;;;;;;;9.70;2.78;;;15.50;99.90;;;;;;5109799;27;20039;-77
2021/07/07 05:03:19;;;;;;;7.03;2.90;;;15.50;99.90;;;;;;5078652;28;20067;-77
2021/07/07 05:05:45;;;;;;;9.00;3.22;;;15.50;99.90;;;;;;5095450;28;20032;-77
2021/07/07 05:08:11;;;;;;;10.13;3.13;;;15.50;99.90;;;;;;5100030;28;20111;-77
2021/07/07 05:10:38;;;;;;;7.47;2.72;;;15.70;99.90;;;;;;5095554;28;20372;-76
2021/07/07 05:13:05;;;;;;;9.30;3.53;;;15.50;99.90;;;;;;5094945;28;20027;-76
2021/07/07 05:15:32;;;;;;;7.90;2.97;;;15.50;99.90;;;;;;5112224;28;20081;-76
2021/07/07 05:17:58;;;;;;;7.60;2.70;;;15.50;99.90;;;;;;5096106;28;20106;-77
2021/07/07 05:20:24;;;;;;;7.07;2.70;;;15.50;99.90;;;;;;5112440;28;20176;-78
2021/07/07 05:22:50;;;;;;;9.82;3.08;;;15.50;99.90;;;;;;5113069;28;20100;-78
2021/07/07 05:25:18;;;;;;;8.68;2.95;;;15.70;99.90;;;;;;5112820;28;20028;-77
2021/07/07 05:27:44;;;;;;;9.02;2.70;;;15.80;99.90;;;;;;5087272;28;20039;-77
2021/07/07 05:30:12;;;;;;;10.52;3.42;;;15.90;99.90;;;;;;5109780;28;20032;-77
2021/07/07 05:32:39;;;;;;;7.72;3.17;;;16.00;99.90;;;;;;5100517;28;20031;-80
2021/07/07 05:35:11;;;;;;;6.95;2.55;;;16.10;99.90;;;;;;5098602;28;20467;-78
2021/07/07 05:37:40;;;;;;;5.50;2.63;;;16.30;99.90;;;;;;5096819;28;20039;-82
2021/07/07 05:40:38;;;;;;;11.27;2.75;;;16.40;99.90;;;;;;5109411;28;20083;-82
2021/07/07 05:43:12;;;;;;;6.28;2.70;;;16.60;99.90;;;;;;5102962;28;20472;-80
2021/07/07 05:45:47;;;;;;;10.60;2.70;;;16.60;99.90;;;;;;5076677;28;20383;-81
2021/07/07 05:52:54;;;;;;;9.32;2.83;;;16.80;99.90;;;;;;5031340;28;20044;-83
2021/07/07 05:55:40;;;;;;;7.15;2.50;;;17.20;99.90;;;;;;5026394;28;20171;-82
2021/07/07 05:58:09;;;;;;;7.03;2.22;;;17.10;99.90;;;;;;5038443;28;20043;-80
2021/07/07 06:00:36;;;;;;;8.35;2.40;;;17.20;99.90;;;;;;5092499;28;20047;-73
2021/07/07 06:03:02;;;;;;;13.07;2.72;;;17.20;99.90;;;;;;5112927;28;20540;-74
2021/07/07 06:05:27;;;;;;;11.20;2.38;;;17.10;99.90;;;;;;5112715;28;20074;-74
2021/07/07 06:07:55;;;;;;;8.38;2.75;;;17.10;99.90;;;;;;5112362;28;20039;-74
2021/07/07 06:10:23;;;;;;;6.85;2.50;;;17.00;99.90;;;;;;5095137;28;20032;-76
2021/07/07 06:12:55;;;;;;;8.85;2.90;;;17.00;99.90;;;;;;5093661;28;20502;-74
2021/07/07 06:15:22;;;;;;;5.97;2.47;;;16.90;99.90;;;;;;5077876;28;20028;-74
2021/07/07 06:17:48;;;;;;;6.85;2.45;;;16.90;99.90;;;;;;5111298;28;20062;-74
2021/07/07 06:20:16;;;;;;;7.95;2.20;;;16.90;99.90;;;;;;5112854;28;20051;-74
2021/07/07 06:22:44;;;;;;;6.88;2.28;;;16.80;99.90;;;;;;5112932;28;20111;-74
2021/07/07 06:25:11;;;;;;;8.93;2.30;;;16.90;99.90;;;;;;5112512;28;20034;-74
2021/07/07 06:27:39;;;;;;;6.93;2.15;;;17.00;99.90;;;;;;5101215;28;20398;-75
2021/07/07 06:30:08;;;;;;;7.43;2.15;;;17.10;99.90;;;;;;5095891;28;20035;-78
2021/07/07 06:32:34;;;;;;;10.13;2.33;;;17.10;99.90;;;;;;5066745;28;20044;-79
2021/07/07 06:35:01;;;;;;;9.85;3.00;;;17.20;99.90;;;;;;5079589;28;20089;-77
2021/07/07 06:37:32;;;;;;;7.85;2.80;;;17.30;99.90;;;;;;5086399;28;20103;-78
2021/07/07 06:39:57;;;;;;;11.70;2.40;;;17.40;99.90;;;;;;5106714;28;20044;-79
2021/07/07 06:42:23;;;;;;;7.78;2.70;;;17.50;99.90;;;;;;5064085;28;20039;-78
2021/07/07 06:44:52;;;;;;;7.07;2.20;;;17.60;99.90;;;;;;5077771;28;20039;-75
2021/07/07 06:47:21;;;;;;;7.65;2.55;;;17.70;99.90;;;;;;5107890;28;20106;-83
2021/07/07 06:49:51;;;;;;;7.18;2.25;;;17.80;99.90;;;;;;5109533;28;20055;-77
2021/07/07 06:52:17;;;;;;;8.30;2.30;;;17.70;99.90;;;;;;5075295;28;20046;-78
2021/07/07 06:54:44;;;;;;;8.30;2.28;;;17.90;99.90;;;;;;5091028;28;20055;-79
2021/07/07 06:57:10;;;;;;;6.30;2.13;;;18.00;99.90;;;;;;5111599;27;20152;-78
2021/07/07 06:59:36;;;;;;;8.95;2.20;;;18.00;99.90;;;;;;5102632;27;20035;-78
2021/07/07 07:02:04;;;;;;;4.60;2.03;;;18.00;99.90;;;;;;5125908;27;20117;-75
2021/07/07 07:04:32;;;;;;;7.72;2.22;;;18.10;99.90;;;;;;5085731;28;20371;-75
2021/07/07 07:06:58;;;;;;;4.60;2.22;;;18.10;99.90;;;;;;5083622;27;20062;-75
2021/07/07 07:09:24;;;;;;;7.65;2.38;;;18.20;99.90;;;;;;5102246;27;20031;-75
2021/07/07 07:11:50;;;;;;;5.13;1.98;;;18.20;99.90;;;;;;5108878;28;20042;-75
2021/07/07 07:14:16;;;;;;;7.25;2.00;;;18.30;99.90;;;;;;5102486;28;20035;-75
2021/07/07 07:16:43;;;;;;;7.63;2.20;;;18.30;99.90;;;;;;5124669;27;20039;-74
2021/07/07 07:19:14;;;;;;;7.28;2.33;;;18.40;99.90;;;;;;5119877;27;20027;-78
2021/07/07 07:21:41;;;;;;;6.90;2.03;;;18.40;99.90;;;;;;5118489;27;20115;-74
2021/07/07 07:24:10;;;;;;;13.00;2.25;;;18.40;99.90;;;;;;5116356;27;20062;-75
2021/07/07 07:26:46;;;;;;;8.27;2.45;;;18.30;99.90;;;;;;5088472;27;20085;-77
2021/07/07 07:29:19;;;;;;;6.60;2.40;;;18.30;99.90;;;;;;5084095;28;20392;-77
2021/07/07 07:31:45;;;;;;;6.25;2.08;;;18.20;99.90;;;;;;5116642;27;20082;-78
2021/07/07 07:34:13;;;;;;;9.27;2.95;;;18.40;99.90;;;;;;5101904;27;20036;-78
2021/07/07 07:36:46;;;;;;;5.63;2.28;;;18.30;99.90;;;;;;5100473;27;20420;-75
2021/07/07 07:39:19;;;;;;;6.72;2.17;;;18.20;99.90;;;;;;5078726;28;20127;-74
2021/07/07 07:41:45;;;;;;;10.00;2.58;;;18.20;99.90;;;;;;5101468;27;20136;-76
2021/07/07 07:44:11;;;;;;;6.72;2.40;;;18.20;99.90;;;;;;5101273;28;20448;-76
2021/07/07 07:46:38;;;;;;;6.60;2.20;;;18.20;99.90;;;;;;5115002;28;20119;-76
2021/07/07 07:49:10;;;;;;;12.00;2.30;;;18.20;99.90;;;;;;5100452;28;20031;-75
2021/07/07 07:51:36;;;;;;;8.38;3.33;;;18.30;99.90;;;;;;5096713;28;20059;-75
2021/07/07 07:54:01;;;;;;;6.50;2.38;;;18.30;99.90;;;;;;5095212;27;20136;-75
2021/07/07 07:56:27;;;;;;;6.88;2.42;;;18.30;99.90;;;;;;5119598;27;20118;-76
2021/07/07 07:58:53;;;;;;;6.38;2.00;;;18.30;99.90;;;;;;5119552;27;20083;-76
2021/07/07 08:01:21;;;;;;;6.88;2.70;;;18.30;99.90;;;;;;5114632;28;20039;-79
2021/07/07 08:03:48;;;;;;;7.95;2.35;;;18.40;99.90;;;;;;5099995;28;20089;-75
2021/07/07 08:06:14;;;;;;;6.68;2.40;;;18.40;99.90;;;;;;5093770;27;20035;-75
2021/07/07 08:08:40;;;;;;;6.80;2.63;;;18.50;99.90;;;;;;5099229;27;20044;-76
2021/07/07 08:11:05;;;;;;;7.70;2.28;;;18.50;99.90;;;;;;5084462;28;20044;-76
2021/07/07 08:13:31;;;;;;;8.77;2.60;;;18.50;99.90;;;;;;5097336;27;20023;-76
2021/07/07 08:15:57;;;;;;;8.40;2.40;;;18.60;99.90;;;;;;5121632;27;20031;-76
2021/07/07 08:18:23;;;;;;;5.90;2.42;;;18.60;99.90;;;;;;5096246;28;20061;-79
2021/07/07 08:20:52;;;;;;;8.63;2.28;;;18.70;99.90;;;;;;5103107;27;20036;-80
2021/07/07 08:23:26;;;;;;;6.60;2.67;;;18.70;99.90;;;;;;5096181;28;20479;-79
2021/07/07 08:25:52;;;;;;;9.70;2.55;;;18.90;99.90;;;;;;5097672;28;20035;-79
2021/07/07 08:28:30;;;;;;;7.78;2.78;;;18.90;99.90;;;;;;5114028;27;20039;-80
2021/07/07 08:31:16;;;;;;;8.55;2.53;;;19.00;99.90;;;;;;5105500;28;20075;-80
2021/07/07 08:33:42;;;;;;;10.93;2.75;;;19.00;99.90;;;;;;5121541;27;20071;-79
2021/07/07 08:36:08;;;;;;;8.52;2.40;;;19.00;99.90;;;;;;5113153;28;20035;-76
2021/07/07 08:38:34;;;;;;;9.57;2.40;;;19.10;99.90;;;;;;5095669;28;20066;-76
2021/07/07 08:41:00;;;;;;;12.85;2.78;;;19.10;99.90;;;;;;5103464;28;20076;-76
2021/07/07 08:43:25;;;;;;;6.53;2.47;;;19.20;99.90;;;;;;5067008;28;20532;-79
2021/07/07 08:45:53;;;;;;;5.38;2.33;;;19.30;99.90;;;;;;5105025;28;20057;-75
2021/07/07 08:48:20;;;;;;;8.32;2.55;;;19.40;99.90;;;;;;5118651;27;20035;-79
2021/07/07 08:50:46;;;;;;;8.90;2.40;;;19.40;99.90;;;;;;5097006;27;20180;-76
2021/07/07 08:53:15;;;;;;;7.63;2.05;;;19.40;99.90;;;;;;5122457;27;20044;-75
2021/07/07 08:55:47;;;;;;;12.60;2.95;;;19.50;99.90;;;;;;5104269;28;20118;-76
2021/07/07 08:58:13;;;;;;;9.40;2.78;;;19.40;99.90;;;;;;5083616;28;20036;-76
2021/07/07 09:00:40;;;;;;;8.07;2.55;;;19.50;99.90;;;;;;5121990;27;20038;-76
2021/07/07 09:03:17;;;;;;;7.30;2.13;;;19.50;99.90;;;;;;5114514;27;20028;-79
2021/07/07 09:06:01;;;;;;;6.20;2.20;;;19.60;99.90;;;;;;5096907;28;20070;-79
2021/07/07 09:08:46;;;;;;;10.27;2.45;;;19.70;99.90;;;;;;5106681;28;20027;-79
2021/07/07 09:11:27;;;;;;;8.13;2.40;;;19.70;99.90;;;;;;5132506;27;20042;-79
2021/07/07 09:14:14;;;;;;;6.45;2.03;;;19.80;99.90;;;;;;5090792;28;20838;-76
2021/07/07 09:16:59;;;;;;;6.68;1.90;;;19.80;99.90;;;;;;5096662;27;20038;-80
2021/07/07 09:19:28;;;;;;;6.82;2.10;;;19.90;99.90;;;;;;5095268;28;20059;-80
2021/07/07 09:22:05;;;;;;;8.25;1.90;;;20.00;99.90;;;;;;5094858;28;20130;-77
2021/07/07 09:25:02;;;;;;;8.88;2.38;;;20.10;99.90;;;;;;5085633;28;20043;-79
2021/07/07 09:27:48;;;;;;;6.32;2.10;;;20.10;99.90;;;;;;5083875;28;20489;-77
2021/07/07 09:30:32;;;;;;;6.63;1.90;;;20.20;99.90;;;;;;5083918;28;20053;-77
2021/07/07 09:33:20;;;;;;;8.25;1.77;;;20.20;99.90;;;;;;5100961;28;20043;-77
2021/07/07 09:35:47;;;;;;;9.55;2.47;;;20.30;99.90;;;;;;5094777;28;20032;-77
2021/07/07 09:38:14;;;;;;;10.95;2.25;;;20.20;99.90;;;;;;5094808;28;20654;-77
2021/07/07 09:40:43;;;;;;;13.65;2.75;;;20.20;99.90;;;;;;5111732;28;20492;-79
2021/07/07 09:43:29;;;;;;;7.47;2.33;;;20.30;99.90;;;;;;5075142;28;20039;-80
2021/07/07 09:46:04;;;;;;;7.70;2.33;;;20.30;99.90;;;;;;5112643;28;20039;-80
2021/07/07 09:48:38;;;;;;;11.65;2.92;;;20.40;99.90;;;;;;5110756;28;20054;-80
2021/07/07 09:51:04;;;;;;;9.27;2.60;;;20.40;99.90;;;;;;5113517;28;20040;-80
2021/07/07 09:53:30;;;;;;;5.90;2.33;;;20.40;99.90;;;;;;5113609;28;20036;-80
2021/07/07 09:55:57;;;;;;;7.30;2.00;;;20.40;99.90;;;;;;5077998;28;20127;-80
2021/07/07 09:58:23;;;;;;;5.72;1.92;;;20.50;99.90;;;;;;5093856;28;20039;-80
2021/07/07 10:00:49;;;;;;;6.63;2.10;;;20.60;99.90;;;;;;5075429;28;20041;-80
2021/07/07 10:03:36;;;;;;;9.13;2.05;;;20.60;99.90;;;;;;5101772;28;20390;-80
2021/07/07 10:06:22;;;;;;;8.52;2.15;;;20.70;99.90;;;;;;5099584;28;20050;-80
2021/07/07 10:09:09;;;;;;;9.02;2.40;;;20.70;99.90;;;;;;5083306;28;20483;-80
2021/07/07 10:11:41;;;;;;;8.27;2.22;;;20.70;99.90;;;;;;5112530;28;20027;-80
2021/07/07 10:14:11;;;;;;;7.57;2.55;;;20.70;99.90;;;;;;5111204;28;20032;-80
2021/07/07 10:16:37;;;;;;;14.07;2.63;;;20.70;99.90;;;;;;5112814;28;20034;-80
2021/07/07 10:19:24;;;;;;;9.65;2.70;;;20.80;99.90;;;;;;5097453;28;20036;-80
2021/07/07 10:21:51;;;;;;;7.03;2.25;;;20.80;99.90;;;;;;5113632;28;20036;-80
2021/07/07 10:24:21;;;;;;;8.85;2.25;;;20.90;99.90;;;;;;5079535;28;20101;-80
2021/07/07 10:26:49;;;;;;;7.70;2.40;;;20.90;99.90;;;;;;5114789;28;20059;-80
2021/07/07 10:29:19;;;;;;;8.18;2.40;;;20.90;99.90;;;;;;5099370;28;20043;-78
2021/07/07 10:31:48;;;;;;;11.68;2.55;;;20.90;99.90;;;;;;5097300;28;20059;-77
2021/07/07 10:34:19;;;;;;;9.70;2.55;;;20.90;99.90;;;;;;5116343;28;20040;-78
2021/07/07 10:36:44;;;;;;;6.43;2.22;;;21.00;99.90;;;;;;5116213;28;20517;-77
2021/07/07 10:39:12;;;;;;;6.47;2.70;;;21.00;99.90;;;;;;5116287;28;20038;-77
2021/07/07 10:41:41;;;;;;;9.93;2.80;;;21.00;99.90;;;;;;5097877;28;20180;-78
2021/07/07 10:44:11;;;;;;;8.05;2.22;;;20.90;99.90;;;;;;5115873;28;20035;-78
2021/07/07 10:46:54;;;;;;;9.35;2.78;;;20.80;99.90;;;;;;5092328;28;20450;-78
2021/07/07 10:49:36;;;;;;;10.07;2.53;;;20.80;99.90;;;;;;5113242;28;20031;-78
2021/07/07 10:52:03;;;;;;;7.60;2.40;;;20.90;99.90;;;;;;5102111;28;20050;-78
2021/07/07 10:54:31;;;;;;;11.02;2.78;;;21.00;99.90;;;;;;5115674;28;20035;-78
2021/07/07 10:56:58;;;;;;;12.43;4.55;;;21.10;99.90;;;;;;5105518;28;20032;-78
2021/07/07 10:59:37;;;;;;;8.98;2.50;;;21.30;99.90;;;;;;5116601;27;20042;-78
2021/07/07 11:02:07;;;;;;;7.22;2.83;;;21.50;99.90;;;;;;5115947;28;20471;-78
2021/07/07 11:04:37;;;;;;;7.72;2.38;;;21.60;99.90;;;;;;5115314;28;20034;-81
2021/07/07 11:07:25;;;;;;;12.48;2.85;;;21.60;99.90;;;;;;5117503;27;20126;-80
2021/07/07 11:09:54;;;;;;;15.30;3.05;;;21.60;99.90;;;;;;5113978;28;20100;-80
2021/07/07 11:12:48;;;;;;;10.73;2.20;;;21.70;99.90;;;;;;5097235;28;20040;-80
2021/07/07 11:15:23;;;;;;;11.32;2.58;;;21.70;99.90;;;;;;5110646;28;20035;-80
2021/07/07 11:17:52;;;;;;;5.78;1.90;;;21.80;99.90;;;;;;5115130;28;20051;-81
2021/07/07 11:20:24;;;;;;;9.52;2.75;;;21.80;99.90;;;;;;5080414;28;20089;-80
2021/07/07 11:22:59;;;;;;;13.02;2.25;;;21.80;99.90;;;;;;5096936;27;20044;-80
2021/07/07 11:25:28;;;;;;;5.93;2.25;;;21.80;99.90;;;;;;5100499;27;20034;-80
2021/07/07 11:27:55;;;;;;;7.47;2.08;;;21.80;99.90;;;;;;5105391;27;20167;-80
2021/07/07 11:30:21;;;;;;;7.03;1.98;;;21.80;99.90;;;;;;5098369;28;20046;-80
2021/07/07 11:32:54;;;;;;;8.57;2.30;;;21.70;99.90;;;;;;5117115;27;20036;-80
2021/07/07 11:35:30;;;;;;;7.07;2.20;;;21.70;99.90;;;;;;5098374;28;20035;-81
2021/07/07 11:38:05;;;;;;;16.83;2.50;;;21.70;99.90;;;;;;5100345;27;20068;-80
2021/07/07 11:40:33;;;;;;;10.37;2.07;;;21.60;99.90;;;;;;5115081;27;20606;-80
2021/07/07 11:43:17;;;;;;;9.38;2.13;;;21.60;99.90;;;;;;5105758;27;20463;-80
2021/07/07 11:45:47;;;;;;;9.73;2.25;;;21.60;99.90;;;;;;5096739;28;20039;-80
2021/07/07 11:48:24;;;;;;;7.78;2.40;;;21.60;99.90;;;;;;5096117;28;20055;-80
2021/07/07 11:50:55;;;;;;;8.20;2.75;;;21.60;99.90;;;;;;5097378;27;20040;-80
2021/07/07 11:53:34;;;;;;;8.13;2.65;;;21.70;99.90;;;;;;5106215;27;20038;-80
2021/07/07 11:56:04;;;;;;;12.07;3.17;;;21.80;99.90;;;;;;5101465;27;20100;-80
2021/07/07 11:58:45;;;;;;;9.65;2.47;;;21.90;99.90;;;;;;5090393;27;20039;-80
2021/07/07 12:01:26;;;;;;;9.70;2.78;;;21.90;99.90;;;;;;5106283;27;20040;-80
2021/07/07 12:04:01;;;;;;;11.27;2.30;;;22.00;99.90;;;;;;5118516;27;20114;-80
2021/07/07 12:06:39;;;;;;;8.63;2.50;;;22.10;99.90;;;;;;5102285;27;20081;-80
2021/07/07 12:09:16;;;;;;;9.07;2.83;;;22.20;99.90;;;;;;5121756;27;20073;-80
2021/07/07 12:11:59;;;;;;;10.20;2.60;;;22.30;99.90;;;;;;5117995;27;20032;-80
2021/07/07 12:14:27;;;;;;;8.98;2.20;;;22.40;99.90;;;;;;5126316;27;20035;-80
2021/07/07 12:16:54;;;;;;;7.10;2.75;;;22.40;99.90;;;;;;5082801;28;20480;-81
2021/07/07 12:19:23;;;;;;;10.07;2.50;;;22.40;99.90;;;;;;5103471;27;20118;-77
2021/07/07 12:22:00;;;;;;;11.55;2.45;;;22.50;99.90;;;;;;5114093;28;20035;-79
2021/07/07 12:24:27;;;;;;;10.43;2.58;;;22.50;99.90;;;;;;5100859;28;20044;-81
2021/07/07 12:27:01;;;;;;;6.82;2.58;;;22.60;99.90;;;;;;5100075;28;20085;-78
2021/07/07 12:29:29;;;;;;;9.77;2.55;;;22.70;99.90;;;;;;5102009;27;20031;-77
2021/07/07 12:32:16;;;;;;;7.22;2.88;;;22.70;99.90;;;;;;5105348;28;20038;-76
2021/07/07 12:34:49;;;;;;;8.93;2.70;;;22.60;99.90;;;;;;5118269;27;20089;-76
2021/07/07 12:37:16;;;;;;;8.57;2.45;;;22.40;99.90;;;;;;5107009;27;20043;-76
2021/07/07 12:39:54;;;;;;;9.38;2.30;;;22.20;99.90;;;;;;5097839;28;20035;-76
2021/07/07 12:42:28;;;;;;;5.85;2.25;;;22.00;99.90;;;;;;5090217;28;20047;-77
2021/07/07 12:45:16;;;;;;;6.80;2.28;;;21.80;99.90;;;;;;5107594;27;20083;-78
2021/07/07 12:47:46;;;;;;;9.77;2.83;;;21.70;99.90;;;;;;5119074;27;20539;-78
2021/07/07 12:50:16;;;;;;;9.27;2.50;;;21.70;99.90;;;;;;5118392;27;20080;-80
2021/07/07 12:52:48;;;;;;;7.97;2.70;;;21.70;99.90;;;;;;5096840;27;20059;-79
2021/07/07 12:55:24;;;;;;;9.95;3.00;;;21.70;99.90;;;;;;5094755;28;20032;-80
2021/07/07 12:57:56;;;;;;;9.75;3.08;;;21.60;99.90;;;;;;5107256;28;20065;-80
2021/07/07 13:00:31;;;;;;;7.00;2.35;;;21.70;99.90;;;;;;5124884;27;20043;-80
2021/07/07 13:03:01;;;;;;;5.20;2.30;;;21.70;99.90;;;;;;5102724;28;20032;-80
2021/07/07 13:05:38;;;;;;;5.45;2.00;;;21.80;99.90;;;;;;5121694;27;20074;-80